sensor_id;sensor_type;location;lat;lon;timestamp;pressure;altitude;pressure_sealevel;temperature;humidity
77867;BME280;67271;59.120;37.970;2023-05-15T00:00:10;100999.09;;;9.89;59.07
77867;BME280;67271;59.120;37.970;2023-05-15T00:02:48;100997.75;;;9.85;59.01
77867;BME280;67271;59.120;37.970;2023-05-15T00:05:14;101007.03;;;9.82;58.92
77867;BME280;67271;59.120;37.970;2023-05-15T00:07:40;101001.97;;;9.79;58.61
77867;BME280;67271;59.120;37.970;2023-05-15T00:10:07;101002.97;;;9.78;58.58
77867;BME280;67271;59.120;37.970;2023-05-15T00:12:33;100995.69;;;9.79;58.20
77867;BME280;67271;59.120;37.970;2023-05-15T00:14:59;101005.50;;;9.80;58.10
77867;BME280;67271;59.120;37.970;2023-05-15T00:17:25;101007.72;;;9.76;58.26
77867;BME280;67271;59.120;37.970;2023-05-15T00:19:51;101005.19;;;9.75;58.07
77867;BME280;67271;59.120;37.970;2023-05-15T00:22:22;101005.19;;;9.75;58.47
77867;BME280;67271;59.120;37.970;2023-05-15T00:24:48;101009.75;;;9.74;58.03
77867;BME280;67271;59.120;37.970;2023-05-15T00:27:14;101010.44;;;9.76;58.12
77867;BME280;67271;59.120;37.970;2023-05-15T00:29:40;101008.06;;;9.73;58.34
77867;BME280;67271;59.120;37.970;2023-05-15T00:32:06;101004.19;;;9.76;58.30
77867;BME280;67271;59.120;37.970;2023-05-15T00:34:32;101004.34;;;9.74;58.13
77867;BME280;67271;59.120;37.970;2023-05-15T00:36:58;101005.19;;;9.75;58.11
77867;BME280;67271;59.120;37.970;2023-05-15T00:39:25;101005.88;;;9.77;57.60
77867;BME280;67271;59.120;37.970;2023-05-15T00:41:50;101009.22;;;9.79;57.75
77867;BME280;67271;59.120;37.970;2023-05-15T00:44:17;101001.78;;;9.81;57.63
77867;BME280;67271;59.120;37.970;2023-05-15T00:46:47;101000.78;;;9.82;57.51
77867;BME280;67271;59.120;37.970;2023-05-15T00:49:14;101002.13;;;9.86;57.60
77867;BME280;67271;59.120;37.970;2023-05-15T00:51:41;101003.81;;;9.87;57.52
77867;BME280;67271;59.120;37.970;2023-05-15T00:54:07;101004.66;;;9.87;57.37
77867;BME280;67271;59.120;37.970;2023-05-15T00:56:34;101003.81;;;9.87;57.38
77867;BME280;67271;59.120;37.970;2023-05-15T00:59:02;100994.69;;;9.88;56.86
77867;BME280;67271;59.120;37.970;2023-05-15T01:01:29;101004.66;;;9.87;57.08
77867;BME280;67271;59.120;37.970;2023-05-15T01:04:02;101007.53;;;9.86;56.92
77867;BME280;67271;59.120;37.970;2023-05-15T01:06:29;101009.56;;;9.84;56.90
77867;BME280;67271;59.120;37.970;2023-05-15T01:08:57;101005.34;;;9.81;57.14
77867;BME280;67271;59.120;37.970;2023-05-15T01:11:26;101011.59;;;9.82;57.48
77867;BME280;67271;59.120;37.970;2023-05-15T01:13:52;101014.47;;;9.80;57.09
77867;BME280;67271;59.120;37.970;2023-05-15T01:16:20;101012.59;;;9.81;57.07
77867;BME280;67271;59.120;37.970;2023-05-15T01:18:46;101010.59;;;9.83;57.08
77867;BME280;67271;59.120;37.970;2023-05-15T01:24:10;101016.00;;;9.83;56.99
77867;BME280;67271;59.120;37.970;2023-05-15T01:32:18;101021.41;;;9.91;56.46
77867;BME280;67271;59.120;37.970;2023-05-15T01:35:09;101020.19;;;9.93;56.60
77867;BME280;67271;59.120;37.970;2023-05-15T01:37:45;101027.13;;;9.96;56.54
77867;BME280;67271;59.120;37.970;2023-05-15T01:40:16;101018.69;;;9.99;56.72
77867;BME280;67271;59.120;37.970;2023-05-15T01:42:50;101021.69;;;10.04;56.58
77867;BME280;67271;59.120;37.970;2023-05-15T01:45:19;101020.31;;;10.08;56.27
77867;BME280;67271;59.120;37.970;2023-05-15T01:47:47;101021.69;;;10.12;56.48
77867;BME280;67271;59.120;37.970;2023-05-15T01:50:16;101020.31;;;10.16;56.39
77867;BME280;67271;59.120;37.970;2023-05-15T01:52:49;101012.59;;;10.21;56.02
77867;BME280;67271;59.120;37.970;2023-05-15T01:55:16;101012.72;;;10.28;56.40
77867;BME280;67271;59.120;37.970;2023-05-15T01:57:45;101014.72;;;10.34;55.46
77867;BME280;67271;59.120;37.970;2023-05-15T02:00:12;101014.19;;;10.38;55.68
77867;BME280;67271;59.120;37.970;2023-05-15T02:02:41;101013.19;;;10.39;55.65
77867;BME280;67271;59.120;37.970;2023-05-15T02:05:09;101007.75;;;10.47;55.69
77867;BME280;67271;59.120;37.970;2023-05-15T02:07:36;101010.72;;;10.61;55.30
77867;BME280;67271;59.120;37.970;2023-05-15T02:10:03;101008.34;;;10.66;55.35
77867;BME280;67271;59.120;37.970;2023-05-15T02:12:30;101010.34;;;10.72;55.22
77867;BME280;67271;59.120;37.970;2023-05-15T02:14:57;101016.06;;;10.77;55.39
77867;BME280;67271;59.120;37.970;2023-05-15T02:17:24;101009.13;;;10.82;55.27
77867;BME280;67271;59.120;37.970;2023-05-15T02:19:50;101010.28;;;10.88;55.06
77867;BME280;67271;59.120;37.970;2023-05-15T02:22:16;101010.72;;;11.00;55.17
77867;BME280;67271;59.120;37.970;2023-05-15T02:24:42;101010.19;;;11.04;54.76
77867;BME280;67271;59.120;37.970;2023-05-15T02:27:24;101005.91;;;11.10;55.28
77867;BME280;67271;59.120;37.970;2023-05-15T02:35:16;101020.16;;;11.35;54.72
77867;BME280;67271;59.120;37.970;2023-05-15T02:37:46;101022.97;;;11.41;54.21
77867;BME280;67271;59.120;37.970;2023-05-15T02:40:14;101018.53;;;11.48;54.03
77867;BME280;67271;59.120;37.970;2023-05-15T02:42:42;101028.00;;;11.67;53.87
77867;BME280;67271;59.120;37.970;2023-05-15T02:45:09;101015.34;;;13.29;50.43
77867;BME280;67271;59.120;37.970;2023-05-15T02:47:35;101028.09;;;15.63;46.29
77867;BME280;67271;59.120;37.970;2023-05-15T02:50:02;101015.78;;;17.22;43.30
77867;BME280;67271;59.120;37.970;2023-05-15T02:52:33;101020.47;;;18.09;42.16
77867;BME280;67271;59.120;37.970;2023-05-15T02:54:59;101014.22;;;19.00;41.08
77867;BME280;67271;59.120;37.970;2023-05-15T02:57:26;101012.91;;;20.04;39.84
77867;BME280;67271;59.120;37.970;2023-05-15T02:59:53;101019.69;;;20.83;39.10
77867;BME280;67271;59.120;37.970;2023-05-15T03:02:19;101016.31;;;21.61;37.82
77867;BME280;67271;59.120;37.970;2023-05-15T03:04:45;101014.53;;;22.17;37.13
77867;BME280;67271;59.120;37.970;2023-05-15T03:07:11;101022.63;;;22.23;36.78
77867;BME280;67271;59.120;37.970;2023-05-15T03:09:39;101020.94;;;22.39;36.55
77867;BME280;67271;59.120;37.970;2023-05-15T03:12:06;101026.16;;;22.57;36.19
77867;BME280;67271;59.120;37.970;2023-05-15T03:14:32;101013.78;;;22.76;35.69
77867;BME280;67271;59.120;37.970;2023-05-15T03:16:59;101033.78;;;23.10;34.90
77867;BME280;67271;59.120;37.970;2023-05-15T03:19:25;101026.63;;;23.36;34.80
77867;BME280;67271;59.120;37.970;2023-05-15T03:21:51;101032.16;;;23.58;34.19
77867;BME280;67271;59.120;37.970;2023-05-15T03:24:20;101030.25;;;23.90;33.83
77867;BME280;67271;59.120;37.970;2023-05-15T03:26:46;101030.75;;;24.19;33.26
77867;BME280;67271;59.120;37.970;2023-05-15T03:29:12;101040.34;;;24.44;32.96
77867;BME280;67271;59.120;37.970;2023-05-15T03:31:38;101042.94;;;24.55;32.55
77867;BME280;67271;59.120;37.970;2023-05-15T03:34:04;101031.47;;;24.84;32.47
77867;BME280;67271;59.120;37.970;2023-05-15T03:36:29;101029.38;;;25.11;31.90
77867;BME280;67271;59.120;37.970;2023-05-15T03:38:56;101038.88;;;25.35;31.33
77867;BME280;67271;59.120;37.970;2023-05-15T03:41:22;101030.94;;;25.64;31.01
77867;BME280;67271;59.120;37.970;2023-05-15T03:43:48;101031.81;;;25.85;30.59
77867;BME280;67271;59.120;37.970;2023-05-15T03:46:17;101036.53;;;26.15;30.14
77867;BME280;67271;59.120;37.970;2023-05-15T03:48:43;101036.25;;;26.42;29.81
77867;BME280;67271;59.120;37.970;2023-05-15T03:51:08;101043.16;;;26.59;29.63
77867;BME280;67271;59.120;37.970;2023-05-15T03:53:34;101036.72;;;26.69;29.40
77867;BME280;67271;59.120;37.970;2023-05-15T03:56:00;101038.09;;;26.82;29.25
77867;BME280;67271;59.120;37.970;2023-05-15T03:58:26;101042.78;;;27.02;29.00
77867;BME280;67271;59.120;37.970;2023-05-15T04:00:52;101039.03;;;27.31;28.56
77867;BME280;67271;59.120;37.970;2023-05-15T04:03:18;101044.66;;;27.21;28.63
77867;BME280;67271;59.120;37.970;2023-05-15T04:05:44;101043.09;;;27.44;28.33
77867;BME280;67271;59.120;37.970;2023-05-15T04:08:15;101044.94;;;27.69;28.15
77867;BME280;67271;59.120;37.970;2023-05-15T04:10:40;101043.22;;;27.78;27.89
77867;BME280;67271;59.120;37.970;2023-05-15T04:13:06;101049.44;;;27.99;27.77
77867;BME280;67271;59.120;37.970;2023-05-15T04:15:34;101047.06;;;27.87;27.83
77867;BME280;67271;59.120;37.970;2023-05-15T04:17:59;101039.97;;;27.66;28.12
77867;BME280;67271;59.120;37.970;2023-05-15T04:20:25;101048.84;;;27.68;28.15
77867;BME280;67271;59.120;37.970;2023-05-15T04:22:52;101043.28;;;27.68;28.26
77867;BME280;67271;59.120;37.970;2023-05-15T04:25:18;101048.94;;;27.58;28.14
77867;BME280;67271;59.120;37.970;2023-05-15T04:27:45;101046.31;;;27.71;28.02
77867;BME280;67271;59.120;37.970;2023-05-15T04:30:11;101043.72;;;27.85;27.81
77867;BME280;67271;59.120;37.970;2023-05-15T04:32:38;101041.31;;;27.73;27.83
77867;BME280;67271;59.120;37.970;2023-05-15T04:35:06;101046.97;;;27.58;28.03
77867;BME280;67271;59.120;37.970;2023-05-15T04:37:35;101035.88;;;27.92;27.80
77867;BME280;67271;59.120;37.970;2023-05-15T04:40:01;101046.00;;;28.12;27.43
77867;BME280;67271;59.120;37.970;2023-05-15T04:42:27;101049.44;;;27.99;27.46
77867;BME280;67271;59.120;37.970;2023-05-15T04:44:53;101055.00;;;27.99;27.65
77867;BME280;67271;59.120;37.970;2023-05-15T04:47:19;101048.22;;;28.15;27.46
77867;BME280;67271;59.120;37.970;2023-05-15T04:49:45;101054.34;;;28.46;27.35
77867;BME280;67271;59.120;37.970;2023-05-15T04:52:12;101047.59;;;28.52;27.71
77867;BME280;67271;59.120;37.970;2023-05-15T04:54:38;101049.50;;;28.85;27.24
77867;BME280;67271;59.120;37.970;2023-05-15T04:57:04;101044.41;;;28.93;27.35
77867;BME280;67271;59.120;37.970;2023-05-15T04:59:31;101058.63;;;29.15;27.09
77867;BME280;67271;59.120;37.970;2023-05-15T05:01:56;101044.06;;;29.42;26.85
77867;BME280;67271;59.120;37.970;2023-05-15T05:04:22;101051.00;;;29.44;26.90
77867;BME280;67271;59.120;37.970;2023-05-15T05:06:48;101048.69;;;29.51;26.82
77867;BME280;67271;59.120;37.970;2023-05-15T05:09:14;101053.97;;;29.53;26.56
77867;BME280;67271;59.120;37.970;2023-05-15T05:11:41;101047.00;;;29.50;26.39
77867;BME280;67271;59.120;37.970;2023-05-15T05:14:12;101044.59;;;29.20;26.75
77867;BME280;67271;59.120;37.970;2023-05-15T05:16:38;101041.75;;;29.25;27.09
77867;BME280;67271;59.120;37.970;2023-05-15T05:19:04;101043.84;;;29.38;26.92
77867;BME280;67271;59.120;37.970;2023-05-15T05:21:31;101045.50;;;29.39;26.72
77867;BME280;67271;59.120;37.970;2023-05-15T05:23:57;101047.13;;;28.98;26.85
77867;BME280;67271;59.120;37.970;2023-05-15T05:26:23;101040.28;;;28.61;27.26
77867;BME280;67271;59.120;37.970;2023-05-15T05:28:50;101045.75;;;28.71;27.31
77867;BME280;67271;59.120;37.970;2023-05-15T05:31:16;101041.72;;;29.06;26.88
77867;BME280;67271;59.120;37.970;2023-05-15T05:33:42;101042.72;;;29.39;26.42
77867;BME280;67271;59.120;37.970;2023-05-15T05:36:09;101032.50;;;29.86;26.01
77867;BME280;67271;59.120;37.970;2023-05-15T05:38:35;101031.16;;;30.02;25.62
77867;BME280;67271;59.120;37.970;2023-05-15T05:41:01;101024.44;;;30.35;25.00
77867;BME280;67271;59.120;37.970;2023-05-15T05:43:28;101024.38;;;30.68;24.31
77867;BME280;67271;59.120;37.970;2023-05-15T05:45:54;101028.00;;;30.55;24.22
77867;BME280;67271;59.120;37.970;2023-05-15T05:48:20;101022.47;;;30.36;24.14
77867;BME280;67271;59.120;37.970;2023-05-15T05:50:46;101027.59;;;30.75;24.14
77867;BME280;67271;59.120;37.970;2023-05-15T05:53:12;101025.16;;;30.41;23.87
77867;BME280;67271;59.120;37.970;2023-05-15T05:55:38;101021.22;;;30.28;24.03
77867;BME280;67271;59.120;37.970;2023-05-15T05:58:04;101021.09;;;30.52;24.24
77867;BME280;67271;59.120;37.970;2023-05-15T06:00:30;101019.13;;;30.66;24.26
77867;BME280;67271;59.120;37.970;2023-05-15T06:02:57;101014.59;;;30.38;23.82
77867;BME280;67271;59.120;37.970;2023-05-15T06:05:26;101022.38;;;30.09;24.36
77867;BME280;67271;59.120;37.970;2023-05-15T06:07:52;101016.16;;;29.79;24.33
77867;BME280;67271;59.120;37.970;2023-05-15T06:10:19;101017.50;;;29.82;24.20
77867;BME280;67271;59.120;37.970;2023-05-15T06:12:45;101015.16;;;29.89;24.14
77867;BME280;67271;59.120;37.970;2023-05-15T06:15:11;101014.19;;;29.80;23.93
77867;BME280;67271;59.120;37.970;2023-05-15T06:17:37;101014.72;;;30.00;24.26
77867;BME280;67271;59.120;37.970;2023-05-15T06:20:04;101017.56;;;30.14;23.94
77867;BME280;67271;59.120;37.970;2023-05-15T06:22:37;101013.00;;;30.18;24.25
77867;BME280;67271;59.120;37.970;2023-05-15T06:25:04;101016.34;;;30.20;23.55
77867;BME280;67271;59.120;37.970;2023-05-15T06:27:32;101005.06;;;29.93;23.65
77867;BME280;67271;59.120;37.970;2023-05-15T06:29:58;101027.25;;;28.80;24.46
77867;BME280;67271;59.120;37.970;2023-05-15T06:32:24;101028.69;;;28.78;24.80
77867;BME280;67271;59.120;37.970;2023-05-15T06:34:50;101021.91;;;29.08;24.97
77867;BME280;67271;59.120;37.970;2023-05-15T06:37:16;101020.16;;;29.36;24.76
77867;BME280;67271;59.120;37.970;2023-05-15T06:39:42;101017.69;;;29.53;24.66
77867;BME280;67271;59.120;37.970;2023-05-15T06:42:08;101015.34;;;29.41;24.72
77867;BME280;67271;59.120;37.970;2023-05-15T06:44:34;101017.03;;;29.18;24.84
77867;BME280;67271;59.120;37.970;2023-05-15T06:47:00;101025.00;;;29.06;25.37
77867;BME280;67271;59.120;37.970;2023-05-15T06:49:26;101010.53;;;29.04;25.27
77867;BME280;67271;59.120;37.970;2023-05-15T06:51:53;101014.16;;;29.05;25.58
77867;BME280;67271;59.120;37.970;2023-05-15T06:54:20;101009.47;;;29.00;25.33
77867;BME280;67271;59.120;37.970;2023-05-15T06:56:46;101008.91;;;28.50;25.46
77867;BME280;67271;59.120;37.970;2023-05-15T06:59:12;101008.91;;;28.50;25.18
77867;BME280;67271;59.120;37.970;2023-05-15T07:01:38;101004.44;;;28.26;25.31
77867;BME280;67271;59.120;37.970;2023-05-15T07:04:04;101014.19;;;28.52;25.10
77867;BME280;67271;59.120;37.970;2023-05-15T07:06:30;101010.59;;;28.75;24.88
77867;BME280;67271;59.120;37.970;2023-05-15T07:08:57;101004.63;;;28.58;24.72
77867;BME280;67271;59.120;37.970;2023-05-15T07:11:24;101011.31;;;27.99;25.08
77867;BME280;67271;59.120;37.970;2023-05-15T07:13:51;101003.50;;;27.67;25.03
77867;BME280;67271;59.120;37.970;2023-05-15T07:16:17;100999.13;;;27.95;24.83
77867;BME280;67271;59.120;37.970;2023-05-15T07:18:43;101002.50;;;28.26;24.70
77867;BME280;67271;59.120;37.970;2023-05-15T07:21:09;100997.78;;;28.22;24.62
77867;BME280;67271;59.120;37.970;2023-05-15T07:23:34;100997.78;;;28.22;24.98
77867;BME280;67271;59.120;37.970;2023-05-15T07:26:00;100996.44;;;28.14;25.45
77867;BME280;67271;59.120;37.970;2023-05-15T07:28:26;100997.69;;;27.98;25.25
77867;BME280;67271;59.120;37.970;2023-05-15T07:30:52;100991.53;;;27.67;25.11
77867;BME280;67271;59.120;37.970;2023-05-15T07:33:18;100998.44;;;27.35;25.34
77867;BME280;67271;59.120;37.970;2023-05-15T07:35:44;100994.59;;;27.26;25.33
77867;BME280;67271;59.120;37.970;2023-05-15T07:38:10;100992.38;;;27.23;25.50
77867;BME280;67271;59.120;37.970;2023-05-15T07:40:36;100988.78;;;27.18;25.53
77867;BME280;67271;59.120;37.970;2023-05-15T07:43:02;100983.63;;;26.86;25.67
77867;BME280;67271;59.120;37.970;2023-05-15T07:45:27;100988.78;;;26.43;26.10
77867;BME280;67271;59.120;37.970;2023-05-15T07:47:53;100987.13;;;26.02;26.19
77867;BME280;67271;59.120;37.970;2023-05-15T07:50:19;100982.72;;;25.96;26.45
77867;BME280;67271;59.120;37.970;2023-05-15T07:52:45;100980.22;;;25.94;26.57
77867;BME280;67271;59.120;37.970;2023-05-15T07:55:12;100979.41;;;25.78;27.20
77867;BME280;67271;59.120;37.970;2023-05-15T07:57:38;100977.19;;;25.75;26.75
77867;BME280;67271;59.120;37.970;2023-05-15T08:00:05;100975.19;;;25.40;27.28
77867;BME280;67271;59.120;37.970;2023-05-15T08:02:40;100983.59;;;24.88;27.16
77867;BME280;67271;59.120;37.970;2023-05-15T08:05:06;100975.69;;;24.18;27.65
77867;BME280;67271;59.120;37.970;2023-05-15T08:07:32;100982.94;;;23.87;28.18
77867;BME280;67271;59.120;37.970;2023-05-15T08:09:58;100974.44;;;23.40;28.25
77867;BME280;67271;59.120;37.970;2023-05-15T08:12:25;100973.78;;;23.28;28.45
77867;BME280;67271;59.120;37.970;2023-05-15T08:14:53;100964.00;;;23.15;28.96
77867;BME280;67271;59.120;37.970;2023-05-15T08:17:19;100967.69;;;22.99;29.03
77867;BME280;67271;59.120;37.970;2023-05-15T08:19:46;100964.78;;;22.89;29.18
77867;BME280;67271;59.120;37.970;2023-05-15T08:22:12;100962.44;;;22.75;28.82
77867;BME280;67271;59.120;37.970;2023-05-15T08:24:39;100958.22;;;22.73;28.93
77867;BME280;67271;59.120;37.970;2023-05-15T08:27:05;100953.38;;;22.63;29.02
77867;BME280;67271;59.120;37.970;2023-05-15T08:29:32;100955.72;;;22.33;29.30
77867;BME280;67271;59.120;37.970;2023-05-15T08:31:58;100953.22;;;22.10;29.49
77867;BME280;67271;59.120;37.970;2023-05-15T08:34:24;100960.00;;;22.02;29.61
77867;BME280;67271;59.120;37.970;2023-05-15T08:36:50;100952.94;;;21.94;29.69
77867;BME280;67271;59.120;37.970;2023-05-15T08:39:17;100952.81;;;22.01;30.23
77867;BME280;67271;59.120;37.970;2023-05-15T08:42:05;100954.28;;;21.92;30.13
77867;BME280;67271;59.120;37.970;2023-05-15T08:44:33;100946.84;;;21.92;30.28
77867;BME280;67271;59.120;37.970;2023-05-15T08:46:59;100951.97;;;22.00;29.96
77867;BME280;67271;59.120;37.970;2023-05-15T08:49:49;100945.88;;;21.98;30.06
77867;BME280;67271;59.120;37.970;2023-05-15T08:52:16;100936.31;;;21.89;29.96
77867;BME280;67271;59.120;37.970;2023-05-15T08:54:42;100945.41;;;21.90;30.09
77867;BME280;67271;59.120;37.970;2023-05-15T08:57:08;100935.50;;;22.06;29.85
77867;BME280;67271;59.120;37.970;2023-05-15T08:59:36;100929.56;;;22.14;30.21
77867;BME280;67271;59.120;37.970;2023-05-15T09:02:02;100930.06;;;22.11;30.13
77867;BME280;67271;59.120;37.970;2023-05-15T09:04:28;100929.91;;;22.17;30.38
77867;BME280;67271;59.120;37.970;2023-05-15T09:06:55;100920.41;;;22.30;29.75
77867;BME280;67271;59.120;37.970;2023-05-15T09:09:23;100923.81;;;22.37;29.51
77867;BME280;67271;59.120;37.970;2023-05-15T09:11:49;100921.19;;;22.47;29.40
77867;BME280;67271;59.120;37.970;2023-05-15T09:14:15;100914.84;;;22.25;29.48
77867;BME280;67271;59.120;37.970;2023-05-15T09:16:41;100917.00;;;22.23;29.46
77867;BME280;67271;59.120;37.970;2023-05-15T09:19:07;100912.13;;;22.08;29.49
77867;BME280;67271;59.120;37.970;2023-05-15T09:21:34;100914.63;;;21.93;29.77
77867;BME280;67271;59.120;37.970;2023-05-15T09:24:23;100915.34;;;21.88;29.67
77867;BME280;67271;59.120;37.970;2023-05-15T09:27:06;100911.13;;;21.97;29.46
77867;BME280;67271;59.120;37.970;2023-05-15T09:29:37;100906.94;;;21.95;29.38
77867;BME280;67271;59.120;37.970;2023-05-15T09:32:05;100904.59;;;22.04;29.05
77867;BME280;67271;59.120;37.970;2023-05-15T09:34:33;100899.59;;;22.00;28.70
77867;BME280;67271;59.120;37.970;2023-05-15T09:37:00;100894.41;;;22.04;28.89
77867;BME280;67271;59.120;37.970;2023-05-15T09:39:26;100900.97;;;22.20;29.04
77867;BME280;67271;59.120;37.970;2023-05-15T09:41:52;100888.53;;;22.17;29.58
77867;BME280;67271;59.120;37.970;2023-05-15T09:44:25;100889.44;;;22.23;29.83
77867;BME280;67271;59.120;37.970;2023-05-15T09:46:52;100877.31;;;22.46;29.57
77867;BME280;67271;59.120;37.970;2023-05-15T09:49:18;100881.84;;;22.57;29.48
77867;BME280;67271;59.120;37.970;2023-05-15T09:51:45;100882.84;;;22.46;29.56
77867;BME280;67271;59.120;37.970;2023-05-15T09:54:18;100875.00;;;22.37;29.62
77867;BME280;67271;59.120;37.970;2023-05-15T09:56:47;100870.31;;;22.38;29.71
77867;BME280;67271;59.120;37.970;2023-05-15T09:59:15;100874.44;;;22.35;29.37
77867;BME280;67271;59.120;37.970;2023-05-15T10:01:42;100876.09;;;22.15;29.76
77867;BME280;67271;59.120;37.970;2023-05-15T10:04:12;100878.16;;;22.24;29.83
77867;BME280;67271;59.120;37.970;2023-05-15T10:06:46;100868.03;;;22.30;29.93
77867;BME280;67271;59.120;37.970;2023-05-15T10:09:13;100868.00;;;22.08;29.81
77867;BME280;67271;59.120;37.970;2023-05-15T10:11:41;100864.59;;;22.01;30.30
77867;BME280;67271;59.120;37.970;2023-05-15T10:14:12;100875.84;;;22.16;30.35
77867;BME280;67271;59.120;37.970;2023-05-15T10:16:39;100869.25;;;22.17;30.34
77867;BME280;67271;59.120;37.970;2023-05-15T10:19:07;100866.28;;;22.24;29.91
77867;BME280;67271;59.120;37.970;2023-05-15T10:21:38;100865.94;;;22.20;30.31
77867;BME280;67271;59.120;37.970;2023-05-15T10:26:41;100853.16;;;21.92;30.62
77867;BME280;67271;59.120;37.970;2023-05-15T10:29:12;100854.66;;;21.83;30.66
77867;BME280;67271;59.120;37.970;2023-05-15T10:31:39;100849.97;;;21.84;30.84
77867;BME280;67271;59.120;37.970;2023-05-15T10:34:10;100851.47;;;21.91;30.81
77867;BME280;67271;59.120;37.970;2023-05-15T10:36:44;100849.31;;;21.93;30.86
77867;BME280;67271;59.120;37.970;2023-05-15T10:39:11;100855.56;;;22.06;30.74
77867;BME280;67271;59.120;37.970;2023-05-15T10:41:38;100852.41;;;22.19;30.04
77867;BME280;67271;59.120;37.970;2023-05-15T10:44:05;100850.84;;;22.23;30.82
77867;BME280;67271;59.120;37.970;2023-05-15T10:46:32;100845.13;;;22.29;30.60
77867;BME280;67271;59.120;37.970;2023-05-15T10:48:59;100848.13;;;22.28;30.67
77867;BME280;67271;59.120;37.970;2023-05-15T10:51:30;100865.94;;;22.20;30.52
77867;BME280;67271;59.120;37.970;2023-05-15T10:53:59;100849.97;;;21.84;30.53
77867;BME280;67271;59.120;37.970;2023-05-15T10:56:28;100855.44;;;21.62;30.88
77867;BME280;67271;59.120;37.970;2023-05-15T10:58:54;100856.94;;;21.53;31.18
77867;BME280;67271;59.120;37.970;2023-05-15T11:01:31;100853.59;;;21.51;31.15
77867;BME280;67271;59.120;37.970;2023-05-15T11:04:13;100848.03;;;21.62;30.83
77867;BME280;67271;59.120;37.970;2023-05-15T11:06:47;100847.25;;;21.67;31.09
77867;BME280;67271;59.120;37.970;2023-05-15T11:11:58;100846.22;;;21.73;31.02
77867;BME280;67271;59.120;37.970;2023-05-15T11:14:29;100843.66;;;21.67;30.97
77867;BME280;67271;59.120;37.970;2023-05-15T11:16:59;100836.47;;;21.66;30.67
77867;BME280;67271;59.120;37.970;2023-05-15T11:21:56;100844.03;;;21.92;30.70
77867;BME280;67271;59.120;37.970;2023-05-15T11:24:57;100836.84;;;22.08;30.19
77867;BME280;67271;59.120;37.970;2023-05-15T11:27:36;100828.00;;;22.06;30.30
77867;BME280;67271;59.120;37.970;2023-05-15T11:30:17;100821.19;;;22.13;30.11
77867;BME280;67271;59.120;37.970;2023-05-15T11:35:26;100824.16;;;22.07;30.25
77867;BME280;67271;59.120;37.970;2023-05-15T11:40:30;100825.75;;;22.03;30.14
77867;BME280;67271;59.120;37.970;2023-05-15T11:43:19;100816.97;;;21.89;29.79
77867;BME280;67271;59.120;37.970;2023-05-15T11:45:51;100814.22;;;21.89;29.49
77867;BME280;67271;59.120;37.970;2023-05-15T11:48:22;100817.50;;;22.03;29.52
77867;BME280;67271;59.120;37.970;2023-05-15T11:50:49;100816.53;;;22.14;29.36
77867;BME280;67271;59.120;37.970;2023-05-15T11:53:19;100817.94;;;22.16;29.40
77867;BME280;67271;59.120;37.970;2023-05-15T11:55:45;100812.03;;;22.08;29.15
77867;BME280;67271;59.120;37.970;2023-05-15T11:58:16;100812.47;;;21.99;29.35
77867;BME280;67271;59.120;37.970;2023-05-15T12:00:44;100802.59;;;22.04;29.20
77867;BME280;67271;59.120;37.970;2023-05-15T12:03:14;100815.00;;;22.01;29.30
77867;BME280;67271;59.120;37.970;2023-05-15T12:05:40;100806.97;;;21.99;29.07
77867;BME280;67271;59.120;37.970;2023-05-15T12:08:11;100800.97;;;22.03;29.34
77867;BME280;67271;59.120;37.970;2023-05-15T12:10:41;100797.28;;;21.97;29.76
77867;BME280;67271;59.120;37.970;2023-05-15T12:13:09;100796.78;;;22.00;29.89
77867;BME280;67271;59.120;37.970;2023-05-15T12:15:37;100790.44;;;21.99;29.71
77867;BME280;67271;59.120;37.970;2023-05-15T12:18:04;100800.13;;;21.85;29.82
77867;BME280;67271;59.120;37.970;2023-05-15T12:20:33;100802.25;;;21.78;29.96
77867;BME280;67271;59.120;37.970;2023-05-15T12:23:01;100804.22;;;21.83;29.81
77867;BME280;67271;59.120;37.970;2023-05-15T12:25:27;100802.94;;;21.90;29.99
77867;BME280;67271;59.120;37.970;2023-05-15T12:27:53;100790.19;;;21.84;30.00
77867;BME280;67271;59.120;37.970;2023-05-15T12:30:19;100789.13;;;21.85;29.79
77867;BME280;67271;59.120;37.970;2023-05-15T12:32:45;100789.16;;;21.69;29.96
77867;BME280;67271;59.120;37.970;2023-05-15T12:35:11;100787.81;;;21.71;30.18
77867;BME280;67271;59.120;37.970;2023-05-15T12:37:37;100776.09;;;21.81;30.32
77867;BME280;67271;59.120;37.970;2023-05-15T12:40:05;100773.91;;;21.83;30.01
77867;BME280;67271;59.120;37.970;2023-05-15T12:42:44;100770.31;;;21.82;30.12
77867;BME280;67271;59.120;37.970;2023-05-15T12:45:17;100770.06;;;21.84;30.02
77867;BME280;67271;59.120;37.970;2023-05-15T12:47:45;100771.09;;;21.78;30.20
77867;BME280;67271;59.120;37.970;2023-05-15T12:50:20;100768.09;;;21.79;30.18
77867;BME280;67271;59.120;37.970;2023-05-15T12:52:52;100770.63;;;22.03;30.06
77867;BME280;67271;59.120;37.970;2023-05-15T12:55:24;100771.19;;;22.05;30.00
77867;BME280;67271;59.120;37.970;2023-05-15T12:57:51;100770.88;;;22.01;30.23
77867;BME280;67271;59.120;37.970;2023-05-15T13:00:18;100765.22;;;22.13;30.28
77867;BME280;67271;59.120;37.970;2023-05-15T13:02:49;100766.94;;;22.19;30.18
77867;BME280;67271;59.120;37.970;2023-05-15T13:05:15;100760.41;;;22.03;30.45
77867;BME280;67271;59.120;37.970;2023-05-15T13:07:42;100762.03;;;21.99;30.53
77867;BME280;67271;59.120;37.970;2023-05-15T13:10:09;100760.63;;;21.96;30.59